Hereford, Texas
Current Conditions -  °F | °C
As of 6:55 AM on Friday 24 Oct 2014 (Local Time) from KHRX Reporting Station
Clear Clear  
Wind Chill: 44°   Ceiling: Unl
Heat Index: 46°   Visibility: 10mi
Dew Point: 45°   Wind: 5mph
Humidity: 96%   Direction: 200°SSW
Pressure: 30.15"   Gusts: NA
Location:  34.81°N, 102.4°W
Report Text: KHRX 241155Z AUTO 20004KT 10SM CLR 08/07 A3015 RMK AO2 T00800074 10121 20080
Loading
Personal Weather Stations






























Interactive Weather Map
Tropical Storm Tracking
New forecast layout! Learn more

10-Day Weather Forecast

Advertisements
Track Severe Weather on mobile